Time;durP1;ratioP1;P1;durP2;ratioP2;P2;SDS_P1;SDS_P2;PMS_P1;PMS_P2;Temp;Humidity;BMP_temperature;BMP_pressure;BME280_temperature;BME280_humidity;BME280_pressure;Samples;Min_cycle;Max_cycle;Signal;HPM_P1;HPM_P2
2022/03/06 00:00:25;;;;;;;0.60;0.60;;;-0.20;99.90;;;-143.19;100.00;53775.09;4888197;29;20672;-66
2022/03/06 00:02:53;;;;;;;0.70;0.70;;;-0.20;99.90;;;-143.19;100.00;53775.09;4934057;29;20226;-65
2022/03/06 00:05:21;;;;;;;0.60;0.60;;;-0.20;99.90;;;-143.19;100.00;53775.09;4898805;29;20210;-65
2022/03/06 00:07:49;;;;;;;0.50;0.50;;;-0.30;99.90;;;-143.19;100.00;53775.09;4898799;29;20702;-65
2022/03/06 00:10:17;;;;;;;0.80;0.80;;;-0.30;99.90;;;-143.19;100.00;53775.09;4907004;29;20229;-65
2022/03/06 00:12:45;;;;;;;0.93;0.93;;;-0.30;99.90;;;-143.19;100.00;53775.09;4916258;29;20221;-65
2022/03/06 00:15:13;;;;;;;0.85;0.85;;;-0.30;99.90;;;-143.19;100.00;53775.09;4879080;29;20203;-65
2022/03/06 00:17:41;;;;;;;0.80;0.80;;;-0.30;99.90;;;-143.19;100.00;53775.09;4895954;29;20227;-65
2022/03/06 00:20:10;;;;;;;0.90;0.90;;;-0.20;99.90;;;-143.19;100.00;53775.09;4931941;29;20217;-65
2022/03/06 00:22:38;;;;;;;0.75;0.75;;;-0.30;99.90;;;-143.19;100.00;53775.09;4901425;29;20671;-65
2022/03/06 00:25:07;;;;;;;1.08;1.08;;;-0.30;99.90;;;-143.19;100.00;53775.09;4912834;29;20702;-65
2022/03/06 00:27:35;;;;;;;0.60;0.60;;;-0.30;99.90;;;-143.19;100.00;53775.09;4881852;29;20230;-65
2022/03/06 00:30:06;;;;;;;0.75;0.75;;;-0.30;99.90;;;-143.19;100.00;53775.09;4922823;29;20222;-65
2022/03/06 00:32:34;;;;;;;0.90;0.90;;;-0.20;99.90;;;-143.19;100.00;53775.09;4907725;29;20216;-65
2022/03/06 00:35:02;;;;;;;0.90;0.90;;;-0.10;99.90;;;-143.19;100.00;53775.09;4915480;29;20228;-65
2022/03/06 00:37:31;;;;;;;0.85;0.85;;;-0.20;99.90;;;-143.19;100.00;53775.09;4915866;29;20230;-64
2022/03/06 00:39:59;;;;;;;1.25;1.25;;;-0.20;99.90;;;-143.19;100.00;53775.09;4905489;29;20213;-65
2022/03/06 00:42:27;;;;;;;3.03;2.88;;;-0.20;99.90;;;-143.19;100.00;53775.09;4904119;29;20215;-65
2022/03/06 00:44:55;;;;;;;0.50;0.50;;;-0.30;99.90;;;-143.19;100.00;53775.09;4908689;29;20230;-64
2022/03/06 00:47:23;;;;;;;1.73;1.73;;;-0.30;99.90;;;-143.19;100.00;53775.09;4916404;29;20233;-64
2022/03/06 00:49:52;;;;;;;1.05;1.05;;;-0.30;99.90;;;-143.19;100.00;53775.09;4903055;29;20206;-64
2022/03/06 00:52:20;;;;;;;0.80;0.80;;;-0.10;99.90;;;-143.19;100.00;53775.09;4920140;29;20228;-65
2022/03/06 00:54:48;;;;;;;0.75;0.75;;;-0.20;99.90;;;-143.19;100.00;53775.09;4915258;29;20221;-65
2022/03/06 00:57:16;;;;;;;0.90;0.90;;;-0.10;99.90;;;-143.19;100.00;53775.09;4918987;29;20230;-66
2022/03/06 00:59:44;;;;;;;0.70;0.70;;;-0.10;99.90;;;-143.19;100.00;53775.09;4928557;29;20207;-65
2022/03/06 01:02:12;;;;;;;0.90;0.90;;;0.40;99.90;;;-143.19;100.00;53775.09;4902571;29;20203;-65
2022/03/06 01:04:41;;;;;;;0.90;0.90;;;0.00;99.90;;;-143.19;100.00;53775.09;4904971;29;20234;-65
2022/03/06 01:07:09;;;;;;;3.50;1.70;;;0.10;99.90;;;-143.19;100.00;53775.09;4903592;23;20234;-66
2022/03/06 01:09:37;;;;;;;0.70;0.70;;;0.10;99.90;;;-143.19;100.00;53775.09;4957620;28;20232;-65
2022/03/06 01:12:05;;;;;;;0.80;0.80;;;0.10;99.90;;;-143.19;100.00;53775.09;4945098;28;20216;-65
2022/03/06 01:14:33;;;;;;;0.60;0.60;;;0.10;99.90;;;-143.19;100.00;53775.09;4943124;28;20209;-65
2022/03/06 01:17:02;;;;;;;0.93;0.88;;;0.10;99.90;;;-143.19;100.00;53775.09;4945109;28;20217;-65
2022/03/06 01:19:29;;;;;;;0.80;0.80;;;0.10;99.90;;;-143.19;100.00;53775.09;4943740;28;20209;-65
2022/03/06 01:21:58;;;;;;;0.70;0.70;;;0.10;99.90;;;-143.19;100.00;53775.09;4961694;28;20201;-66
2022/03/06 01:24:26;;;;;;;0.70;0.70;;;0.10;99.90;;;-143.19;100.00;53775.09;4942081;28;20232;-66
2022/03/06 01:26:54;;;;;;;0.68;0.68;;;0.20;99.90;;;-143.19;100.00;53775.09;4927321;28;20206;-66
2022/03/06 01:29:22;;;;;;;0.85;0.85;;;0.10;99.90;;;-143.19;100.00;53775.09;4959607;28;20232;-66
2022/03/06 01:31:50;;;;;;;0.50;0.50;;;0.30;99.90;;;-143.19;100.00;53775.09;4962063;28;20205;-66
2022/03/06 01:34:18;;;;;;;0.50;0.50;;;0.10;99.90;;;-143.19;100.00;53775.09;4951204;28;20225;-65
2022/03/06 01:36:46;;;;;;;0.80;0.80;;;0.10;99.90;;;-143.19;100.00;53775.09;4944013;28;20221;-65
2022/03/06 01:39:14;;;;;;;0.70;0.70;;;0.10;99.90;;;-143.19;100.00;53775.09;4953624;28;20233;-65
2022/03/06 01:41:42;;;;;;;1.10;1.05;;;0.20;99.90;;;-143.19;100.00;53775.09;4964057;28;20209;-66
2022/03/06 01:44:14;;;;;;;0.75;0.75;;;0.10;99.90;;;-143.19;100.00;53775.09;4939637;28;20240;-66
2022/03/06 01:46:46;;;;;;;1.00;1.00;;;0.10;99.90;;;-143.19;100.00;53775.09;4952505;28;20209;-65
2022/03/06 01:49:15;;;;;;;0.80;0.80;;;0.40;99.90;;;-143.19;100.00;53775.09;4933547;29;20225;-65
2022/03/06 01:51:44;;;;;;;0.90;0.90;;;0.10;99.90;;;-143.19;100.00;53775.09;4942764;28;20205;-65
2022/03/06 01:54:13;;;;;;;1.02;0.95;;;0.00;99.90;;;-143.19;100.00;53775.09;4958640;28;20209;-66
2022/03/06 01:56:42;;;;;;;0.98;0.93;;;0.10;99.90;;;-143.19;100.00;53775.09;4978511;28;20798;-66
2022/03/06 01:59:11;;;;;;;0.95;0.95;;;0.10;99.90;;;-143.19;100.00;53775.09;4951540;28;20363;-66
2022/03/06 02:01:38;;;;;;;0.90;0.90;;;0.10;99.90;;;-143.19;100.00;53775.09;4952893;28;20221;-66
2022/03/06 02:04:07;;;;;;;0.70;0.70;;;0.20;99.90;;;-143.19;100.00;53775.09;4945549;28;20217;-65
2022/03/06 02:06:36;;;;;;;0.90;0.90;;;0.20;99.90;;;-143.19;100.00;53775.09;4951527;28;20210;-66
2022/03/06 02:09:04;;;;;;;0.68;0.68;;;0.20;99.90;;;-143.19;100.00;53775.09;4942009;28;20248;-65
2022/03/06 02:11:33;;;;;;;0.85;0.85;;;0.20;99.90;;;-143.19;100.00;53775.09;4933363;28;20217;-65
2022/03/06 02:14:02;;;;;;;0.93;0.93;;;0.50;99.90;;;-143.19;100.00;53775.09;4920395;28;20213;-65
2022/03/06 02:16:33;;;;;;;1.00;1.00;;;0.10;99.90;;;-143.19;100.00;53775.09;4945643;28;20213;-66
2022/03/06 02:19:01;;;;;;;1.17;1.17;;;0.10;99.90;;;-143.19;100.00;53775.09;4945946;28;20238;-65
2022/03/06 02:21:29;;;;;;;0.70;0.70;;;0.10;99.90;;;-143.19;100.00;53775.09;4923751;28;20209;-65
2022/03/06 02:23:59;;;;;;;0.70;0.70;;;0.10;99.90;;;-143.19;100.00;53775.09;4941272;28;20216;-66
2022/03/06 02:26:27;;;;;;;0.80;0.80;;;0.10;99.90;;;-143.19;100.00;53775.09;4923344;28;20209;-66
2022/03/06 02:28:55;;;;;;;0.90;0.90;;;0.10;99.90;;;-143.19;100.00;53775.09;4970846;28;20229;-66
2022/03/06 02:31:23;;;;;;;0.55;0.55;;;0.10;99.90;;;-143.19;100.00;53775.09;4953181;28;20240;-65
2022/03/06 02:33:51;;;;;;;1.05;1.05;;;0.10;99.90;;;-143.19;100.00;53775.09;4940212;28;20213;-66
2022/03/06 02:36:19;;;;;;;0.90;0.90;;;0.10;99.90;;;-143.19;100.00;53775.09;4944235;28;20213;-65
2022/03/06 02:38:50;;;;;;;0.70;0.70;;;0.10;99.90;;;-143.19;100.00;53775.09;4916747;28;20229;-65
2022/03/06 02:41:18;;;;;;;0.90;0.90;;;0.10;99.90;;;-143.19;100.00;53775.09;4919218;28;20213;-65
2022/03/06 02:43:46;;;;;;;0.95;0.95;;;0.10;99.90;;;-143.19;100.00;53775.09;4932128;28;20199;-65
2022/03/06 02:46:14;;;;;;;1.70;1.60;;;0.10;99.90;;;-143.19;100.00;53775.09;4950249;28;20241;-66
2022/03/06 02:48:42;;;;;;;0.80;0.80;;;0.10;99.90;;;-143.19;100.00;53775.09;4936358;28;20260;-65
2022/03/06 02:51:10;;;;;;;0.68;0.68;;;0.10;99.90;;;-143.19;100.00;53775.09;4958617;28;20213;-65
2022/03/06 02:53:38;;;;;;;1.08;1.08;;;0.10;99.90;;;-143.19;100.00;53775.09;4936763;28;20224;-65
2022/03/06 02:56:06;;;;;;;0.93;0.93;;;0.10;99.90;;;-143.19;100.00;53775.09;4927594;28;20216;-66
2022/03/06 02:58:34;;;;;;;0.70;0.70;;;0.00;99.90;;;-143.19;100.00;53775.09;4906101;28;20369;-65
2022/03/06 03:01:02;;;;;;;1.05;1.02;;;0.10;99.90;;;-143.19;100.00;53775.09;4944395;28;20212;-65
2022/03/06 03:03:39;;;;;;;0.82;0.82;;;0.00;99.90;;;-143.19;100.00;53775.09;4974358;28;20220;-66
2022/03/06 03:06:07;;;;;;;0.77;0.77;;;0.10;99.90;;;-143.19;100.00;53775.09;4949100;28;20228;-65
2022/03/06 03:08:35;;;;;;;0.80;0.80;;;0.10;99.90;;;-143.19;100.00;53775.09;4935172;28;20229;-65
2022/03/06 03:11:03;;;;;;;0.82;0.82;;;0.10;99.90;;;-143.19;100.00;53775.09;4963596;28;20213;-65
2022/03/06 03:13:31;;;;;;;1.10;1.00;;;0.00;99.90;;;-143.19;100.00;53775.09;4916137;28;20209;-65
2022/03/06 03:16:00;;;;;;;1.10;1.10;;;0.20;99.90;;;-143.19;100.00;53775.09;4942374;28;20224;-65
2022/03/06 03:18:29;;;;;;;0.98;0.98;;;0.00;99.90;;;-143.19;100.00;53775.09;4925486;28;20252;-65
2022/03/06 03:20:57;;;;;;;0.70;0.70;;;0.00;99.90;;;-143.19;100.00;53775.09;4936385;28;20228;-65
2022/03/06 03:23:25;;;;;;;0.90;0.90;;;0.00;99.90;;;-143.19;100.00;53775.09;4938956;28;20220;-66
2022/03/06 03:25:53;;;;;;;0.80;0.80;;;-0.10;99.90;;;-143.19;100.00;53775.09;4957517;28;20225;-66
2022/03/06 03:28:20;;;;;;;0.90;0.90;;;0.10;99.90;;;-143.19;100.00;53775.09;4970258;28;20229;-66
2022/03/06 03:30:48;;;;;;;0.80;0.80;;;-0.10;99.90;;;-143.19;100.00;53775.09;4954598;28;20205;-66
2022/03/06 03:33:17;;;;;;;0.80;0.80;;;-0.10;99.90;;;-143.19;100.00;53775.09;4954934;28;20213;-65
2022/03/06 03:35:44;;;;;;;0.93;0.93;;;0.00;99.90;;;-143.19;100.00;53775.09;4922004;28;20216;-65
2022/03/06 03:38:13;;;;;;;0.75;0.75;;;-0.10;99.90;;;-143.19;100.00;53775.09;4939974;28;20236;-65
2022/03/06 03:40:41;;;;;;;0.80;0.80;;;-0.20;99.90;;;-143.19;100.00;53775.09;4938531;28;20228;-65
2022/03/06 03:43:09;;;;;;;0.70;0.70;;;-0.10;99.90;;;-143.19;100.00;53775.09;4906446;28;20213;-65
2022/03/06 03:45:37;;;;;;;0.80;0.80;;;-0.20;99.90;;;-143.19;100.00;53775.09;4937171;28;20252;-65
2022/03/06 03:48:05;;;;;;;0.70;0.70;;;-0.20;99.90;;;-143.19;100.00;53775.09;4919340;28;20232;-65
2022/03/06 03:50:33;;;;;;;0.70;0.70;;;-0.20;99.90;;;-143.19;100.00;53775.09;4947765;28;20222;-65
2022/03/06 03:53:01;;;;;;;0.90;0.90;;;-0.30;99.90;;;-143.19;100.00;53775.09;4925979;28;20200;-65
2022/03/06 03:55:29;;;;;;;0.70;0.70;;;-0.30;99.90;;;-143.19;100.00;53775.09;4951689;28;20213;-65
2022/03/06 03:57:57;;;;;;;0.70;0.70;;;-0.30;99.90;;;-143.19;100.00;53775.09;4966849;28;20247;-65
2022/03/06 04:00:25;;;;;;;0.98;0.98;;;-0.10;99.90;;;-143.19;100.00;53775.09;4921524;28;20546;-66
2022/03/06 04:02:54;;;;;;;0.90;0.90;;;-0.30;99.90;;;-143.19;100.00;53775.09;4968714;28;20210;-65
2022/03/06 04:05:23;;;;;;;0.70;0.70;;;-0.30;99.90;;;-143.19;100.00;53775.09;4955031;28;20610;-65
2022/03/06 04:07:50;;;;;;;0.82;0.82;;;-0.30;99.90;;;-143.19;100.00;53775.09;4941573;28;20229;-65
2022/03/06 04:10:19;;;;;;;0.95;0.93;;;-0.30;99.90;;;-143.19;100.00;53775.09;4937208;28;20201;-65
2022/03/06 04:12:46;;;;;;;0.75;0.75;;;-0.30;99.90;;;-143.19;100.00;53775.09;4935099;28;20202;-65
2022/03/06 04:15:14;;;;;;;0.90;0.90;;;-0.20;99.90;;;-143.19;100.00;53775.09;4928312;28;20216;-65
2022/03/06 04:17:42;;;;;;;0.93;0.93;;;-0.20;99.90;;;-143.19;100.00;53775.09;4910391;28;20241;-65
2022/03/06 04:20:11;;;;;;;1.08;1.00;;;-0.10;99.90;;;-143.19;100.00;53775.09;4919682;28;20209;-65
2022/03/06 04:22:39;;;;;;;0.90;0.90;;;-0.30;99.90;;;-143.19;100.00;53775.09;4936676;28;20205;-65
2022/03/06 04:25:07;;;;;;;0.90;0.90;;;-0.30;99.90;;;-143.19;100.00;53775.09;4969465;28;20225;-65
2022/03/06 04:27:35;;;;;;;0.80;0.80;;;-0.30;99.90;;;-143.19;100.00;53775.09;4937609;28;20217;-65
2022/03/06 04:30:04;;;;;;;1.00;1.00;;;-0.20;99.90;;;-143.19;100.00;53775.09;4951395;28;20205;-65
2022/03/06 04:32:32;;;;;;;0.85;0.85;;;-0.30;99.90;;;-143.19;100.00;53775.09;4922548;28;20209;-65
2022/03/06 04:35:01;;;;;;;0.88;0.88;;;-0.30;99.90;;;-143.19;100.00;53775.09;4937252;28;20676;-65
2022/03/06 04:37:28;;;;;;;0.88;0.88;;;-0.30;99.90;;;-143.19;100.00;53775.09;4926721;28;20221;-65
2022/03/06 04:39:56;;;;;;;0.70;0.70;;;-0.20;99.90;;;-143.19;100.00;53775.09;4938031;28;20210;-65
2022/03/06 04:42:24;;;;;;;2.28;2.17;;;-0.10;99.90;;;-143.19;100.00;53775.09;4937016;28;20198;-65
2022/03/06 04:44:52;;;;;;;1.95;1.85;;;-0.20;99.90;;;-143.19;100.00;53775.09;4951116;28;20205;-65
2022/03/06 04:47:20;;;;;;;0.80;0.80;;;-0.20;99.90;;;-143.19;100.00;53775.09;4917638;28;20225;-66
2022/03/06 04:49:48;;;;;;;1.00;1.00;;;-0.20;99.90;;;-143.19;100.00;53775.09;4931555;28;20226;-65
2022/03/06 04:52:16;;;;;;;1.15;1.05;;;-0.10;99.90;;;-143.19;100.00;53775.09;4935284;28;20661;-66
2022/03/06 04:54:44;;;;;;;0.90;0.90;;;-0.20;99.90;;;-143.19;100.00;53775.09;4950143;28;20236;-65
2022/03/06 04:57:12;;;;;;;0.80;0.80;;;0.10;99.90;;;-143.19;100.00;53775.09;4927946;28;20229;-66
2022/03/06 04:59:40;;;;;;;0.90;0.90;;;-0.20;99.90;;;-143.19;100.00;53775.09;4942342;28;20210;-65
2022/03/06 05:02:08;;;;;;;0.80;0.80;;;-0.20;99.90;;;-143.19;100.00;53775.09;4934332;28;20204;-65
2022/03/06 05:04:37;;;;;;;1.98;1.88;;;-0.10;99.90;;;-143.19;100.00;53775.09;4957302;28;20194;-65
2022/03/06 05:07:04;;;;;;;0.80;0.80;;;-0.20;99.90;;;-143.19;100.00;53775.09;4949555;28;20232;-65
2022/03/06 05:09:32;;;;;;;0.90;0.90;;;-0.10;99.90;;;-143.19;100.00;53775.09;4953944;28;20228;-65
2022/03/06 05:12:01;;;;;;;0.80;0.80;;;-0.20;99.90;;;-143.19;100.00;53775.09;4936802;28;20217;-66
2022/03/06 05:14:29;;;;;;;0.90;0.90;;;-0.10;99.90;;;-143.19;100.00;53775.09;4935029;28;20201;-65
2022/03/06 05:16:56;;;;;;;0.80;0.80;;;-0.10;99.90;;;-143.19;100.00;53775.09;4919574;28;20221;-65
2022/03/06 05:19:25;;;;;;;1.77;1.67;;;-0.10;99.90;;;-143.19;100.00;53775.09;4919794;28;20685;-65
2022/03/06 05:21:53;;;;;;;0.80;0.80;;;-0.10;99.90;;;-143.19;100.00;53775.09;4922647;28;20209;-65
2022/03/06 05:24:21;;;;;;;0.70;0.70;;;-0.10;99.90;;;-143.19;100.00;53775.09;4921620;28;20307;-65
2022/03/06 05:26:49;;;;;;;0.80;0.80;;;-0.10;99.90;;;-143.19;100.00;53775.09;4937489;28;20222;-65
2022/03/06 05:29:17;;;;;;;0.80;0.80;;;-0.10;99.90;;;-143.19;100.00;53775.09;4938161;28;20229;-65
2022/03/06 05:31:45;;;;;;;0.73;0.73;;;-0.10;99.90;;;-143.19;100.00;53775.09;4930859;28;20212;-65
2022/03/06 05:34:14;;;;;;;0.80;0.80;;;0.10;99.90;;;-143.19;100.00;53775.09;4907894;28;20217;-65
2022/03/06 05:36:41;;;;;;;0.70;0.70;;;-0.10;99.90;;;-143.19;100.00;53775.09;4940443;28;20217;-65
2022/03/06 05:39:10;;;;;;;0.70;0.70;;;-0.10;99.90;;;-143.19;100.00;53775.09;4905605;29;20234;-65
2022/03/06 05:41:38;;;;;;;0.50;0.50;;;0.00;99.90;;;-143.19;100.00;53775.09;4946762;28;20202;-65
2022/03/06 05:44:06;;;;;;;0.47;0.47;;;-0.10;99.90;;;-143.19;100.00;53775.09;4940529;28;20295;-65
2022/03/06 05:46:34;;;;;;;0.90;0.90;;;-0.10;99.90;;;-143.19;100.00;53775.09;4938545;28;20229;-65
2022/03/06 05:49:02;;;;;;;0.80;0.80;;;0.00;99.90;;;-143.19;100.00;53775.09;4962421;28;20241;-65
2022/03/06 05:51:30;;;;;;;0.80;0.80;;;-0.10;99.90;;;-143.19;100.00;53775.09;4944579;28;20550;-65
2022/03/06 05:53:59;;;;;;;0.80;0.80;;;0.00;99.90;;;-143.19;100.00;53775.09;4955812;28;20208;-65
2022/03/06 05:56:27;;;;;;;1.08;1.00;;;0.10;99.90;;;-143.19;100.00;53775.09;4945891;28;20216;-66
2022/03/06 05:58:55;;;;;;;1.02;1.00;;;0.00;99.90;;;-143.19;100.00;53775.09;4942185;28;20223;-65
2022/03/06 06:01:23;;;;;;;0.80;0.80;;;-0.10;99.90;;;-143.19;100.00;53775.09;4965794;28;20690;-65
2022/03/06 06:03:52;;;;;;;0.55;0.55;;;-0.10;99.90;;;-143.19;100.00;53775.09;4937803;28;20237;-65
2022/03/06 06:06:20;;;;;;;0.60;0.60;;;-0.10;99.90;;;-143.19;100.00;53775.09;4924609;28;20225;-65
2022/03/06 06:08:47;;;;;;;0.60;0.60;;;0.00;99.90;;;-143.19;100.00;53775.09;4941841;29;20238;-65
2022/03/06 06:11:16;;;;;;;0.77;0.77;;;-0.10;99.90;;;-143.19;100.00;53775.09;4956648;28;20221;-65
2022/03/06 06:13:44;;;;;;;0.55;0.55;;;-0.10;99.90;;;-143.19;100.00;53775.09;4975558;28;20204;-65
2022/03/06 06:16:12;;;;;;;0.70;0.70;;;0.10;99.90;;;-143.19;100.00;53775.09;4956226;28;20292;-65
2022/03/06 06:18:40;;;;;;;0.82;0.82;;;-0.10;99.90;;;-143.19;100.00;53775.09;4958743;28;20232;-65
2022/03/06 06:21:10;;;;;;;0.70;0.70;;;-0.10;99.90;;;-143.19;100.00;53775.09;4959150;28;20206;-65
2022/03/06 06:23:39;;;;;;;0.73;0.73;;;-0.10;99.90;;;-143.19;100.00;53775.09;4927108;28;20213;-66
2022/03/06 06:26:07;;;;;;;0.75;0.75;;;-0.10;99.90;;;-143.19;100.00;53775.09;4931410;28;20685;-65
2022/03/06 06:28:36;;;;;;;1.08;1.02;;;0.00;99.90;;;-143.19;100.00;53775.09;4945886;28;20689;-65
2022/03/06 06:31:06;;;;;;;0.55;0.55;;;0.00;99.90;;;-143.19;100.00;53775.09;4924640;28;20205;-65
2022/03/06 06:33:34;;;;;;;0.80;0.80;;;0.00;99.90;;;-143.19;100.00;53775.09;4939269;28;20233;-65
2022/03/06 06:36:03;;;;;;;0.70;0.70;;;0.00;99.90;;;-143.19;100.00;53775.09;4936277;28;20212;-65
2022/03/06 06:38:31;;;;;;;0.70;0.70;;;0.00;99.90;;;-143.19;100.00;53775.09;4929918;28;20236;-65
2022/03/06 06:40:59;;;;;;;0.90;0.90;;;0.00;99.90;;;-143.19;100.00;53775.09;4950942;28;20216;-65
2022/03/06 06:43:29;;;;;;;1.17;1.08;;;0.10;99.90;;;-143.19;100.00;53775.09;4939411;28;20198;-65
2022/03/06 06:45:57;;;;;;;0.90;0.90;;;0.10;99.90;;;-143.19;100.00;53775.09;4930186;28;20213;-65
2022/03/06 06:48:26;;;;;;;1.25;1.15;;;0.20;99.90;;;-143.19;100.00;53775.09;4932212;28;20240;-65
2022/03/06 06:50:53;;;;;;;1.58;1.48;;;0.20;99.90;;;-143.19;100.00;53775.09;4948116;28;20208;-65
2022/03/06 06:53:21;;;;;;;1.02;1.00;;;0.40;99.90;;;-143.19;100.00;53775.09;4948358;28;20210;-65
2022/03/06 06:55:49;;;;;;;0.90;0.90;;;0.30;99.90;;;-143.19;100.00;53775.09;4940859;28;20216;-66
2022/03/06 06:58:17;;;;;;;1.10;1.10;;;0.40;99.90;;;-143.19;100.00;53775.09;4952296;28;20229;-65
2022/03/06 07:00:45;;;;;;;0.80;0.80;;;0.40;99.90;;;-143.19;100.00;53775.09;4907710;28;20209;-65
2022/03/06 07:03:14;;;;;;;0.70;0.70;;;0.30;99.90;;;-143.19;100.00;53775.09;4950237;28;20205;-65
2022/03/06 07:05:44;;;;;;;0.70;0.70;;;0.30;99.90;;;-143.19;100.00;53775.09;4941329;28;20576;-64
2022/03/06 07:08:13;;;;;;;0.70;0.70;;;0.10;99.90;;;-143.19;100.00;53775.09;4939125;28;20233;-65
2022/03/06 07:10:41;;;;;;;0.98;0.98;;;0.50;99.90;;;-143.19;100.00;53775.09;4932786;28;20209;-65
2022/03/06 07:13:09;;;;;;;0.90;0.90;;;0.40;99.90;;;-143.19;100.00;53775.09;4937553;28;20228;-64
2022/03/06 07:15:37;;;;;;;1.55;1.45;;;0.50;99.90;;;-143.19;100.00;53775.09;4951786;23;20246;-66
2022/03/06 07:18:05;;;;;;;0.85;0.85;;;0.50;99.90;;;-143.19;100.00;53775.09;4923355;29;20225;-66
2022/03/06 07:20:34;;;;;;;0.90;0.90;;;0.80;99.90;;;-143.19;100.00;53775.09;4901429;29;20225;-65
2022/03/06 07:23:05;;;;;;;1.15;1.10;;;0.60;99.90;;;-143.19;100.00;53775.09;4910865;29;20210;-65
2022/03/06 07:25:34;;;;;;;1.00;1.00;;;0.50;99.90;;;-143.19;100.00;53775.09;4909676;29;20707;-66
2022/03/06 07:28:02;;;;;;;1.20;1.15;;;0.60;99.90;;;-143.19;100.00;53775.09;4908654;29;20242;-66
2022/03/06 07:30:32;;;;;;;2.47;2.38;;;0.70;99.90;;;-143.19;100.00;53775.09;4928341;29;20682;-66
2022/03/06 07:33:00;;;;;;;1.45;1.35;;;0.80;99.90;;;-143.19;100.00;53775.09;4889834;29;20211;-66
2022/03/06 07:35:29;;;;;;;0.80;0.80;;;0.80;99.90;;;-143.19;100.00;53775.09;4892603;29;20239;-66
2022/03/06 07:37:58;;;;;;;1.20;1.10;;;0.80;99.90;;;-143.19;100.00;53775.09;4909228;29;20210;-66
2022/03/06 07:40:26;;;;;;;1.20;1.10;;;0.90;99.90;;;-143.19;100.00;53775.09;4896538;29;20211;-67
2022/03/06 07:42:57;;;;;;;1.17;1.08;;;0.90;99.90;;;-143.19;100.00;53775.09;4929696;29;20223;-66
2022/03/06 07:45:25;;;;;;;1.17;1.08;;;1.00;99.90;;;-143.19;100.00;53775.09;4901220;29;20231;-67
2022/03/06 07:47:53;;;;;;;0.93;0.93;;;1.10;99.90;;;-143.19;100.00;53775.09;4888119;29;20238;-66
2022/03/06 07:50:21;;;;;;;0.80;0.80;;;1.60;99.90;;;-143.19;100.00;53775.09;4915010;29;20222;-67
2022/03/06 07:52:50;;;;;;;0.98;0.98;;;1.20;99.90;;;-143.19;100.00;53775.09;4890839;29;20214;-67
2022/03/06 07:55:17;;;;;;;0.80;0.80;;;1.20;99.90;;;-143.19;100.00;53775.09;4913289;29;20700;-67
2022/03/06 07:57:45;;;;;;;1.42;1.33;;;1.30;99.90;;;-143.19;100.00;53775.09;4879844;29;20219;-68
2022/03/06 08:00:14;;;;;;;0.90;0.90;;;1.40;99.90;;;-143.19;100.00;53775.09;4893098;29;20218;-67
2022/03/06 08:02:43;;;;;;;1.20;1.10;;;1.40;99.90;;;-143.19;100.00;53775.09;4895105;29;20208;-66
2022/03/06 08:05:11;;;;;;;1.50;1.40;;;1.40;99.90;;;-143.19;100.00;53775.09;4892899;29;20214;-67
2022/03/06 08:07:39;;;;;;;1.00;1.00;;;2.00;99.90;;;-143.19;100.00;53775.09;4905224;29;20230;-66
2022/03/06 08:10:08;;;;;;;1.00;1.00;;;1.60;99.90;;;-143.19;100.00;53775.09;4896180;29;20597;-66
2022/03/06 08:12:36;;;;;;;1.73;1.63;;;1.70;99.90;;;-143.19;100.00;53775.09;4867436;29;20207;-66
2022/03/06 08:15:05;;;;;;;1.48;1.38;;;1.80;99.90;;;-143.19;100.00;53775.09;4917870;29;20217;-67
2022/03/06 08:17:34;;;;;;;1.05;1.02;;;1.80;99.90;;;-143.19;100.00;53775.09;4894361;29;20310;-66
2022/03/06 08:20:05;;;;;;;1.23;1.13;;;1.90;99.90;;;-143.19;100.00;53775.09;4908544;28;20705;-66
2022/03/06 08:22:33;;;;;;;1.15;1.05;;;2.00;99.90;;;-143.19;100.00;53775.09;4951681;28;20217;-66
2022/03/06 08:25:03;;;;;;;1.20;1.10;;;2.00;99.90;;;-143.19;100.00;53775.09;4912568;28;20209;-66
2022/03/06 08:27:32;;;;;;;0.90;0.90;;;2.10;99.90;;;-143.19;100.00;53775.09;4923197;29;20225;-67
2022/03/06 08:30:01;;;;;;;1.20;1.10;;;2.20;99.90;;;-143.19;100.00;53775.09;4907783;28;20198;-66
2022/03/06 08:32:29;;;;;;;1.17;1.10;;;2.30;99.90;;;-143.19;100.00;53775.09;4940015;28;20207;-67
2022/03/06 08:34:58;;;;;;;0.75;0.75;;;2.40;99.90;;;-143.19;100.00;53775.09;4896869;28;20205;-66
2022/03/06 08:37:27;;;;;;;0.90;0.90;;;2.50;99.90;;;-143.19;100.00;53775.09;4910404;29;20210;-66
2022/03/06 08:39:55;;;;;;;1.25;1.15;;;2.60;99.90;;;-143.19;100.00;53775.09;4902530;28;20209;-66
2022/03/06 08:42:24;;;;;;;1.08;1.00;;;2.70;99.90;;;-143.19;100.00;53775.09;4920588;29;20213;-66
2022/03/06 08:44:52;;;;;;;1.17;1.08;;;2.70;99.90;;;-143.19;100.00;53775.09;4897180;28;20217;-67
2022/03/06 08:47:20;;;;;;;1.33;1.23;;;2.80;99.90;;;-143.19;100.00;53775.09;4915319;29;20239;-66
2022/03/06 08:49:48;;;;;;;1.05;1.00;;;2.90;99.90;;;-143.19;100.00;53775.09;4906237;28;20206;-67
2022/03/06 08:52:16;;;;;;;1.20;1.10;;;3.00;99.90;;;-143.19;100.00;53775.09;4911378;28;20202;-67
2022/03/06 08:54:44;;;;;;;0.88;0.88;;;3.20;99.90;;;-143.19;100.00;53775.09;4914476;28;20202;-67
2022/03/06 08:57:13;;;;;;;0.82;0.82;;;3.20;99.90;;;-143.19;100.00;53775.09;4932952;28;20226;-67
2022/03/06 08:59:41;;;;;;;0.93;0.93;;;3.30;99.90;;;-143.19;100.00;53775.09;4914715;28;20217;-68
2022/03/06 09:02:09;;;;;;;0.73;0.73;;;3.30;99.90;;;-143.19;100.00;53775.09;4924276;29;20210;-67
2022/03/06 09:04:37;;;;;;;1.30;1.20;;;3.40;99.90;;;-143.19;100.00;53775.09;4907326;29;20210;-68
2022/03/06 09:07:06;;;;;;;1.00;1.00;;;3.60;99.90;;;-143.19;100.00;53775.09;4912544;29;20249;-67
2022/03/06 09:09:34;;;;;;;0.90;0.90;;;3.60;99.90;;;-143.19;100.00;53775.09;4932118;28;20234;-67
2022/03/06 09:12:02;;;;;;;1.38;1.27;;;3.60;99.90;;;-143.19;100.00;53775.09;4921675;28;20217;-67
2022/03/06 09:14:30;;;;;;;1.33;1.23;;;3.60;99.90;;;-143.19;100.00;53775.09;4925682;28;20210;-68
2022/03/06 09:16:58;;;;;;;0.90;0.90;;;3.60;99.90;;;-143.19;100.00;53775.09;4926224;28;20242;-67
2022/03/06 09:19:27;;;;;;;1.00;1.00;;;3.60;99.90;;;-143.19;100.00;53775.09;4892601;29;20219;-67
2022/03/06 09:21:55;;;;;;;1.35;1.35;;;3.70;99.90;;;-143.19;100.00;53775.09;4880546;29;20222;-67
2022/03/06 09:24:23;;;;;;;1.00;1.00;;;3.80;99.90;;;-143.19;100.00;53775.09;4901490;29;20210;-67
2022/03/06 09:26:51;;;;;;;1.20;1.10;;;3.80;99.90;;;-143.19;100.00;53775.09;4906017;29;20242;-66
2022/03/06 09:29:19;;;;;;;0.93;0.93;;;3.90;99.90;;;-143.19;100.00;53775.09;4878721;29;20699;-67
2022/03/06 09:31:47;;;;;;;1.00;1.00;;;4.00;99.90;;;-143.19;100.00;53775.09;4891362;29;20222;-67
2022/03/06 09:34:15;;;;;;;1.40;1.30;;;4.10;99.90;;;-143.19;100.00;53775.09;4892804;29;20237;-67
2022/03/06 09:36:47;;;;;;;0.52;0.52;;;4.20;99.90;;;-143.19;100.00;53775.09;4892700;29;20226;-66
2022/03/06 09:39:15;;;;;;;0.63;0.63;;;4.30;99.90;;;-143.19;100.00;53775.09;4913500;29;20230;-67
2022/03/06 09:41:44;;;;;;;1.10;1.00;;;4.50;99.90;;;-143.19;100.00;53775.09;4898982;29;20210;-68
2022/03/06 09:44:13;;;;;;;0.85;0.85;;;4.60;99.90;;;-143.19;100.00;53775.09;4888066;29;20212;-68
2022/03/06 09:46:41;;;;;;;0.70;0.70;;;4.60;99.90;;;-143.19;100.00;53775.09;4907643;29;20234;-68
2022/03/06 09:49:15;;;;;;;0.90;0.90;;;4.70;99.90;;;-143.19;100.00;53775.09;4885227;29;20229;-68
2022/03/06 09:51:47;;;;;;;1.77;1.67;;;4.70;99.90;;;-143.19;100.00;53775.09;4906044;29;20210;-67
2022/03/06 09:54:16;;;;;;;0.70;0.70;;;4.70;99.90;;;-143.19;100.00;53775.09;4907318;29;20218;-67
2022/03/06 09:56:45;;;;;;;0.80;0.80;;;4.80;99.90;;;-143.19;100.00;53775.09;4882825;29;20706;-72
2022/03/06 09:59:13;;;;;;;0.50;0.50;;;4.90;99.90;;;-143.19;100.00;53775.09;4890119;29;20219;-69
2022/03/06 10:01:42;;;;;;;1.05;1.00;;;5.10;99.90;;;-143.19;100.00;53775.09;4891429;29;20210;-67
2022/03/06 10:04:29;;;;;;;0.50;0.50;;;5.20;99.90;;;-143.19;100.00;53775.09;4890414;29;20237;-67
2022/03/06 10:07:16;;;;;;;0.90;0.90;;;5.40;99.90;;;-143.19;100.00;53775.09;4890358;29;20242;-67